Time;durP1;ratioP1;P1;durP2;ratioP2;P2;SDS_P1;SDS_P2;PMS_P1;PMS_P2;Temp;Humidity;BMP_temperature;BMP_pressure;BME280_temperature;BME280_humidity;BME280_pressure;Samples;Min_cycle;Max_cycle;Signal;HPM_P1;HPM_P2
2022/06/20 00:00:20;;;;;;;12.73;5.32;;;;;;;19.99;64.33;100917.63;2112194;28;20596;-76
2022/06/20 00:01:42;;;;;;;9.80;5.40;;;;;;;19.98;64.28;100915.84;2105612;28;20089;-76
2022/06/20 00:03:09;;;;;;;10.65;5.35;;;;;;;19.97;64.17;100914.97;2097584;28;20044;-76
2022/06/20 00:04:30;;;;;;;12.13;5.32;;;;;;;19.96;64.23;100909.63;2103880;28;20044;-76
2022/06/20 00:05:53;;;;;;;11.50;5.50;;;;;;;19.96;64.19;100910.50;2103126;28;20134;-76
2022/06/20 00:07:15;;;;;;;11.40;5.30;;;;;;;19.94;64.50;100908.78;2107692;28;20161;-77
2022/06/20 00:08:37;;;;;;;9.95;5.30;;;;;;;19.92;64.31;100900.78;2111217;28;20467;-76
2022/06/20 00:10:00;;;;;;;10.40;5.07;;;;;;;19.86;64.51;100911.63;2094846;28;20467;-75
2022/06/20 00:11:28;;;;;;;11.80;5.47;;;;;;;19.82;64.83;100912.63;2094928;28;20052;-75
2022/06/20 00:12:52;;;;;;;8.45;4.78;;;;;;;19.78;64.71;100903.75;2103754;28;20044;-77
2022/06/20 00:14:16;;;;;;;10.00;5.20;;;;;;;19.68;64.76;100907.53;2097827;28;20101;-75
2022/06/20 00:15:38;;;;;;;11.13;4.40;;;;;;;19.49;65.17;100909.63;2094999;28;20041;-76
2022/06/20 00:17:02;;;;;;;12.70;4.47;;;;;;;19.30;65.38;100897.47;2101195;28;20044;-76
2022/06/20 00:18:25;;;;;;;13.07;5.57;;;;;;;19.23;65.70;100898.47;2107951;28;20052;-76
2022/06/20 00:19:48;;;;;;;9.30;4.90;;;;;;;19.18;65.88;100902.16;2103161;28;20516;-76
2022/06/20 00:21:12;;;;;;;9.80;4.97;;;;;;;19.20;65.98;100895.88;2105792;28;20036;-76
2022/06/20 00:22:34;;;;;;;8.32;4.68;;;;;;;19.19;65.86;100899.47;2106104;28;20056;-76
2022/06/20 00:23:57;;;;;;;12.07;4.65;;;;;;;19.23;66.10;100905.66;2094746;28;20406;-76
2022/06/20 00:25:19;;;;;;;10.27;4.80;;;;;;;19.29;65.92;100902.88;2100241;28;20048;-76
2022/06/20 00:26:41;;;;;;;;;;;;;;;19.28;65.98;100902.00;2103035;28;20043;-76
2022/06/20 00:28:05;;;;;;;9.52;5.45;;;;;;;19.30;65.71;100897.47;2111488;28;19924;-76
2022/06/20 00:29:28;;;;;;;13.20;5.50;;;;;;;19.38;65.45;100897.34;2105737;28;20044;-76
2022/06/20 00:30:50;;;;;;;9.45;5.25;;;;;;;19.42;65.25;100902.63;2103437;28;20508;-76
2022/06/20 00:32:13;;;;;;;9.18;5.85;;;;;;;19.46;64.97;100892.75;2094741;28;20041;-76
2022/06/20 00:33:36;;;;;;;13.43;5.75;;;;;;;19.52;64.87;100899.78;2100629;28;20449;-76
2022/06/20 00:34:58;;;;;;;10.80;6.22;;;;;;;19.56;64.78;100886.31;2103197;28;20071;-76
2022/06/20 00:36:20;;;;;;;11.40;5.18;;;;;;;19.56;64.66;100896.16;2103097;28;20051;-76
2022/06/20 00:37:43;;;;;;;9.63;5.32;;;;;;;19.53;64.70;100890.84;2110442;28;20048;-76
2022/06/20 00:39:06;;;;;;;11.68;5.93;;;;;;;19.47;65.04;100898.09;2103233;28;20051;-76
2022/06/20 00:40:32;;;;;;;10.77;5.65;;;;;;;19.49;64.94;100906.09;2111455;28;20064;-75
2022/06/20 00:41:55;;;;;;;8.50;4.88;;;;;;;19.50;64.79;100899.81;2111921;28;20055;-76
2022/06/20 00:43:22;;;;;;;8.32;5.28;;;;;;;19.48;64.95;100893.63;2111617;28;20044;-76
2022/06/20 00:44:48;;;;;;;8.52;5.15;;;;;;;19.46;65.13;100900.78;2103574;28;20514;-76
2022/06/20 00:46:13;;;;;;;9.95;5.90;;;;;;;19.47;65.06;100894.53;2109458;28;20047;-76
2022/06/20 00:47:36;;;;;;;11.15;5.32;;;;;;;19.48;64.97;100891.84;2114220;28;20071;-76
2022/06/20 00:49:03;;;;;;;;;;;;;;;19.47;64.97;100894.53;2111773;28;20071;-76
2022/06/20 00:50:28;;;;;;;10.65;5.03;;;;;;;19.46;64.87;100890.97;2111953;28;19924;-76
2022/06/20 00:51:57;;;;;;;11.15;6.00;;;;;;;19.44;64.75;100889.19;2112023;28;20093;-76
2022/06/20 00:53:23;;;;;;;10.40;5.22;;;;;;;19.41;64.84;100890.16;2103929;28;20085;-76
2022/06/20 00:54:50;;;;;;;10.23;5.70;;;;;;;19.41;64.92;100887.47;2103465;28;20085;-76
2022/06/20 00:56:19;;;;;;;13.70;5.80;;;;;;;19.35;64.90;100882.22;2103849;28;20150;-76
2022/06/20 00:57:47;;;;;;;13.32;5.45;;;;;;;19.36;65.31;100885.78;2104062;28;20059;-76
2022/06/20 00:59:16;;;;;;;8.73;5.30;;;;;;;19.38;65.36;100879.47;2095478;28;20049;-77
2022/06/20 01:00:39;;;;;;;12.02;5.63;;;;;;;19.40;65.53;100885.69;2102080;28;20483;-77
2022/06/20 01:02:06;;;;;;;10.52;5.25;;;;;;;19.39;65.54;100883.03;2103137;28;20048;-76
2022/06/20 01:03:33;;;;;;;11.13;5.32;;;;;;;19.41;65.43;100882.13;2103017;28;20044;-76
2022/06/20 01:05:01;;;;;;;10.35;5.13;;;;;;;19.44;65.68;100875.81;2111980;28;20048;-76
2022/06/20 01:06:27;;;;;;;11.07;5.57;;;;;;;19.48;65.69;100873.09;2114147;28;20056;-76
2022/06/20 01:07:54;;;;;;;10.52;4.80;;;;;;;19.44;65.48;100875.81;2111842;28;20047;-76
2022/06/20 01:09:21;;;;;;;9.52;5.60;;;;;;;19.38;65.57;100882.16;2103090;28;20048;-76
2022/06/20 01:10:47;;;;;;;8.05;5.20;;;;;;;19.35;65.60;100871.53;2093426;28;20055;-76
2022/06/20 01:12:12;;;;;;;10.50;4.80;;;;;;;19.36;65.85;100872.41;2101385;28;20075;-76
2022/06/20 01:13:34;;;;;;;9.63;5.20;;;;;;;19.38;65.76;100878.59;2103083;28;20074;-76
2022/06/20 01:14:56;;;;;;;10.88;5.30;;;;;;;19.42;65.78;100867.81;2102828;28;20040;-76
2022/06/20 01:16:26;;;;;;;11.52;5.22;;;;;;;19.44;65.39;100873.13;2102359;28;20550;-76
2022/06/20 01:17:49;;;;;;;9.32;5.22;;;;;;;19.36;65.63;100870.59;2105358;28;20112;-76
2022/06/20 01:19:23;;;;;;;8.45;5.15;;;;;;;19.36;65.67;100873.25;2111379;28;20075;-76
2022/06/20 01:20:48;;;;;;;11.93;5.45;;;;;;;19.41;65.93;100865.16;2113007;28;20146;-76
2022/06/20 01:22:22;;;;;;;11.15;5.60;;;;;;;19.45;65.47;100870.41;2111305;28;20058;-77
2022/06/20 01:23:51;;;;;;;8.35;5.63;;;;;;;19.45;65.54;100862.38;2113340;28;20055;-76
2022/06/20 01:25:28;;;;;;;9.48;5.53;;;;;;;19.43;65.46;100861.53;2103669;28;20409;-76
2022/06/20 01:26:56;;;;;;;11.60;5.22;;;;;;;19.43;65.38;100871.34;2105386;28;20072;-75
2022/06/20 01:28:24;;;;;;;9.52;5.50;;;;;;;19.39;65.44;100872.34;2103396;28;20135;-77
2022/06/20 01:29:46;;;;;;;7.97;4.70;;;;;;;19.32;65.42;100862.66;2102971;28;20079;-75
2022/06/20 01:31:10;;;;;;;9.88;5.10;;;;;;;19.27;65.80;100862.75;2102901;28;20097;-76
2022/06/20 01:32:32;;;;;;;12.85;5.47;;;;;;;19.25;65.82;100863.66;2104758;28;20060;-76
2022/06/20 01:33:59;;;;;;;11.77;4.75;;;;;;;19.22;65.84;100864.63;2102873;28;20044;-76
2022/06/20 01:38:43;;;;;;;8.90;5.18;;;;;;;19.27;65.96;100857.38;2096871;28;20047;-76
2022/06/20 01:40:08;;;;;;;8.57;4.47;;;;;;;19.28;65.94;100858.28;2100624;28;20052;-76
2022/06/20 01:43:12;;;;;;;10.05;4.80;;;;;;;19.19;65.89;100855.75;2103642;28;20052;-76
2022/06/20 01:44:37;;;;;;;12.65;5.20;;;;;;;19.17;66.23;100855.78;2110679;28;20035;-76
2022/06/20 01:46:04;;;;;;;7.63;5.03;;;;;;;19.19;66.15;100861.09;2096799;28;20504;-76
2022/06/20 01:47:27;;;;;;;12.05;4.95;;;;;;;19.19;66.01;100861.09;2103258;28;20106;-76
2022/06/20 01:48:53;;;;;;;9.55;5.30;;;;;;;19.19;65.86;100859.31;2096929;28;20110;-75
2022/06/20 01:50:15;;;;;;;8.30;4.68;;;;;;;19.21;66.07;100856.63;2096634;28;20075;-76
2022/06/20 01:51:42;;;;;;;7.97;4.70;;;;;;;19.20;65.96;100861.09;2102282;28;20044;-76
2022/06/20 01:53:08;;;;;;;7.47;4.95;;;;;;;19.23;66.18;100862.84;2096970;28;20311;-76
2022/06/20 01:54:34;;;;;;;10.05;5.13;;;;;;;19.27;66.08;100862.75;2094846;28;20496;-76
2022/06/20 01:55:58;;;;;;;7.60;4.35;;;;;;;19.28;65.76;100863.63;2102401;28;20131;-77
2022/06/20 01:57:20;;;;;;;7.63;4.75;;;;;;;19.30;65.61;100861.78;2096590;28;20107;-76
2022/06/20 01:58:47;;;;;;;7.55;4.55;;;;;;;19.31;65.70;100863.56;2093855;28;20095;-76
2022/06/20 02:00:15;;;;;;;8.05;4.85;;;;;;;19.32;65.60;100860.84;2108112;28;20526;-75
2022/06/20 02:01:38;;;;;;;10.88;4.85;;;;;;;19.36;65.77;100853.66;2103033;28;20052;-76
2022/06/20 02:03:05;;;;;;;13.27;5.80;;;;;;;19.36;65.45;100851.84;2102636;28;20048;-76
2022/06/20 02:04:32;;;;;;;8.65;4.75;;;;;;;19.38;65.33;100847.34;2103292;28;20071;-76
2022/06/20 02:05:56;;;;;;;8.68;4.57;;;;;;;19.39;65.09;100845.56;2104400;28;20101;-76
2022/06/20 02:07:19;;;;;;;9.05;5.40;;;;;;;19.36;65.11;100842.94;2105169;28;20105;-76
2022/06/20 02:08:43;;;;;;;10.02;5.50;;;;;;;19.35;65.12;100849.22;2102504;28;20048;-76
2022/06/20 02:10:07;;;;;;;6.68;4.25;;;;;;;19.33;65.24;100845.69;2102534;28;20040;-77
2022/06/20 02:11:33;;;;;;;7.20;4.75;;;;;;;19.35;65.44;100843.88;2096832;28;20107;-76
2022/06/20 02:12:59;;;;;;;9.68;4.55;;;;;;;19.33;65.35;100846.56;2107264;28;20047;-76
2022/06/20 02:14:25;;;;;;;7.78;4.40;;;;;;;19.31;65.40;100850.16;2111044;28;20045;-76
2022/06/20 02:15:52;;;;;;;9.80;4.22;;;;;;;19.34;65.44;100855.47;2113394;28;20653;-77
2022/06/20 02:17:18;;;;;;;8.73;4.30;;;;;;;19.36;65.48;100851.84;2109427;28;20142;-78
2022/06/20 02:18:42;;;;;;;7.30;4.40;;;;;;;19.37;65.20;100850.94;2102794;28;20534;-77
2022/06/20 02:20:12;;;;;;;7.22;3.92;;;;;;;19.39;65.13;100849.13;2094191;28;20083;-76
2022/06/20 02:21:36;;;;;;;12.38;4.15;;;;;;;19.38;65.12;100849.13;2101620;28;20553;-76
2022/06/20 02:22:59;;;;;;;12.23;5.20;;;;;;;19.41;65.32;100854.44;2106960;28;20526;-76
2022/06/20 02:24:24;;;;;;;8.25;3.78;;;;;;;19.42;65.15;100850.88;2102493;28;20039;-76
2022/06/20 02:25:50;;;;;;;9.63;3.92;;;;;;;19.40;64.99;100850.88;2110788;28;20084;-76
2022/06/20 02:27:19;;;;;;;8.82;4.45;;;;;;;19.38;65.18;100852.69;2111191;28;20051;-76
2022/06/20 02:28:50;;;;;;;7.78;4.05;;;;;;;19.38;65.22;100849.13;2111564;28;20047;-76
2022/06/20 02:30:13;;;;;;;8.88;4.80;;;;;;;19.38;65.11;100855.38;2106548;28;20396;-77
2022/06/20 02:31:36;;;;;;;7.85;4.22;;;;;;;19.36;64.91;100853.66;2102220;28;20434;-76
2022/06/20 02:33:03;;;;;;;7.88;4.47;;;;;;;19.35;64.85;100849.22;2101634;28;20036;-76
2022/06/20 02:34:27;;;;;;;7.43;4.18;;;;;;;19.31;65.00;100851.06;2102951;28;20051;-77
2022/06/20 02:35:50;;;;;;;8.80;4.38;;;;;;;19.29;64.92;100852.91;2110845;28;20040;-76
2022/06/20 02:37:20;;;;;;;7.82;3.95;;;;;;;19.30;65.09;100843.94;2103579;28;20570;-76
2022/06/20 02:38:43;;;;;;;7.57;4.43;;;;;;;19.31;65.26;100851.06;2111867;28;20130;-76
2022/06/20 02:40:11;;;;;;;9.65;4.32;;;;;;;19.25;65.02;100856.53;2110580;28;20445;-77
2022/06/20 02:41:35;;;;;;;9.55;4.57;;;;;;;19.23;65.07;100858.34;2110634;28;20046;-76
2022/06/20 02:43:01;;;;;;;7.32;4.28;;;;;;;19.24;65.08;100851.19;2111232;28;20047;-76
2022/06/20 02:44:24;;;;;;;7.10;4.22;;;;;;;19.22;65.09;100853.03;2110180;28;20138;-76
2022/06/20 02:45:47;;;;;;;8.45;4.43;;;;;;;19.21;65.12;100851.25;2101762;28;20043;-76
2022/06/20 02:47:11;;;;;;;8.63;4.75;;;;;;;19.23;65.04;100855.66;2092891;28;20809;-76
2022/06/20 02:48:35;;;;;;;7.78;4.55;;;;;;;19.24;64.88;100853.88;2108586;28;20044;-76
2022/06/20 02:49:59;;;;;;;10.27;4.60;;;;;;;19.23;64.79;100850.31;2110765;28;20693;-76
2022/06/20 02:51:26;;;;;;;9.63;4.50;;;;;;;19.22;64.83;100851.25;2099713;28;20044;-76
2022/06/20 02:52:52;;;;;;;5.65;4.00;;;;;;;19.21;65.01;100856.63;2102901;28;20143;-76
2022/06/20 02:54:15;;;;;;;6.45;4.50;;;;;;;19.19;65.13;100856.63;2093828;28;20079;-76
2022/06/20 02:55:39;;;;;;;9.25;4.95;;;;;;;19.19;65.07;100858.44;2099931;28;20094;-76
2022/06/20 02:57:08;;;;;;;7.65;4.38;;;;;;;19.18;64.78;100862.00;2102664;28;20474;-76
2022/06/20 02:58:35;;;;;;;9.90;4.80;;;;;;;19.14;64.84;100866.56;2094734;28;20040;-76
2022/06/20 02:59:58;;;;;;;11.10;5.22;;;;;;;19.09;64.94;100863.97;2100713;28;20048;-76
2022/06/20 03:01:30;;;;;;;10.20;4.82;;;;;;;19.07;64.87;100860.41;2096305;28;20131;-76
2022/06/20 03:02:59;;;;;;;8.85;4.45;;;;;;;19.00;65.02;100857.88;2088163;28;20068;-76
2022/06/20 03:04:23;;;;;;;7.20;4.03;;;;;;;19.01;65.29;100867.69;2084426;28;20041;-76
2022/06/20 03:05:45;;;;;;;7.35;4.20;;;;;;;19.04;65.32;100862.25;2091744;28;20501;-76
2022/06/20 03:07:11;;;;;;;9.13;4.30;;;;;;;19.09;65.21;100858.63;2085370;28;20041;-76
2022/06/20 03:08:34;;;;;;;8.63;4.70;;;;;;;19.14;65.34;100865.66;2096179;28;20043;-76
2022/06/20 03:10:02;;;;;;;11.45;5.18;;;;;;;19.18;65.05;100867.34;2110514;28;20138;-76
2022/06/20 03:11:27;;;;;;;9.48;4.28;;;;;;;19.21;65.06;100861.97;2104934;28;20075;-76
2022/06/20 03:12:50;;;;;;;6.53;3.83;;;;;;;19.24;65.08;100867.25;2110830;28;20134;-76
2022/06/20 03:14:16;;;;;;;8.95;4.00;;;;;;;19.29;65.11;100870.75;2104650;28;20554;-77
2022/06/20 03:15:39;;;;;;;6.07;3.80;;;;;;;19.35;65.01;100867.97;2101115;28;20066;-76
2022/06/20 03:17:04;;;;;;;8.45;4.38;;;;;;;19.39;65.14;100866.97;2102196;28;20075;-77
2022/06/20 03:18:28;;;;;;;6.72;4.45;;;;;;;19.42;64.87;100865.13;2108643;28;20600;-77
2022/06/20 03:19:55;;;;;;;10.07;5.03;;;;;;;19.44;64.58;100862.41;2110636;28;20052;-77
2022/06/20 03:21:21;;;;;;;6.50;3.92;;;;;;;19.45;64.70;100866.84;2111005;28;20124;-77
2022/06/20 03:22:49;;;;;;;7.32;3.70;;;;;;;19.46;64.83;100860.63;2102287;28;20051;-77
2022/06/20 03:24:18;;;;;;;6.35;3.95;;;;;;;19.53;64.87;100861.41;2109246;28;20526;-76
2022/06/20 03:25:42;;;;;;;10.00;3.85;;;;;;;19.62;64.83;100870.16;2091254;28;20048;-77
2022/06/20 03:27:06;;;;;;;7.72;3.53;;;;;;;19.72;64.67;100869.03;2099888;28;20044;-77
2022/06/20 03:28:31;;;;;;;7.88;4.18;;;;;;;19.82;64.36;100872.44;2102543;28;20055;-77
2022/06/20 03:29:55;;;;;;;6.68;3.75;;;;;;;19.92;63.87;100867.72;2110128;28;20064;-77
2022/06/20 03:31:17;;;;;;;10.55;3.78;;;;;;;20.01;63.62;100856.84;2096412;28;20056;-77
2022/06/20 03:32:39;;;;;;;9.23;3.50;;;;;;;20.07;63.32;100862.06;2098994;28;20111;-76
2022/06/20 03:34:03;;;;;;;6.28;3.75;;;;;;;20.15;63.23;100857.41;2103817;28;20131;-77
2022/06/20 03:35:30;;;;;;;7.60;3.50;;;;;;;20.27;63.05;100862.50;2102030;28;20477;-76
2022/06/20 03:36:52;;;;;;;7.05;3.45;;;;;;;20.40;63.07;100860.47;2094101;28;20052;-76
2022/06/20 03:38:16;;;;;;;6.85;3.90;;;;;;;20.53;63.06;100857.47;2090982;28;20076;-76
2022/06/20 03:39:39;;;;;;;7.85;3.40;;;;;;;20.65;63.06;100862.53;2104525;28;20062;-75
2022/06/20 03:41:01;;;;;;;10.50;3.80;;;;;;;20.79;63.06;100856.81;2110476;28;20071;-75
2022/06/20 03:42:23;;;;;;;6.00;3.28;;;;;;;20.92;62.77;100858.28;2109819;28;20047;-75
2022/06/20 03:43:51;;;;;;;8.27;4.07;;;;;;;21.06;62.90;100863.28;2101710;28;20051;-75
2022/06/20 03:45:16;;;;;;;4.97;3.28;;;;;;;21.19;62.76;100864.78;2094476;28;20498;-75
2022/06/20 03:46:45;;;;;;;7.72;3.35;;;;;;;21.33;62.53;100867.09;2091533;28;20043;-75
2022/06/20 03:48:11;;;;;;;6.22;3.10;;;;;;;21.46;62.09;100857.78;2101365;28;20530;-76
2022/06/20 03:49:40;;;;;;;8.32;3.22;;;;;;;21.58;62.11;100865.50;2104933;28;20455;-76
2022/06/20 03:51:06;;;;;;;9.30;3.45;;;;;;;21.69;61.81;100865.19;2102436;28;20086;-76
2022/06/20 03:52:34;;;;;;;7.32;2.90;;;;;;;21.79;61.52;100864.84;2108548;28;20122;-76
2022/06/20 03:54:02;;;;;;;6.32;2.85;;;;;;;21.93;61.41;100864.44;2111589;28;20055;-76
2022/06/20 03:55:30;;;;;;;5.20;3.22;;;;;;;22.10;61.32;100864.88;2112634;28;20051;-76
2022/06/20 03:56:55;;;;;;;6.00;2.78;;;;;;;22.25;61.11;100866.25;2105860;28;20074;-76
2022/06/20 03:58:23;;;;;;;7.45;3.00;;;;;;;22.39;60.87;100857.72;2103708;28;20131;-76
2022/06/20 03:59:47;;;;;;;7.32;2.97;;;;;;;22.52;60.81;100868.03;2104458;28;20090;-76
2022/06/20 04:01:13;;;;;;;7.72;2.72;;;;;;;22.66;60.56;100854.13;2111988;28;20424;-76
2022/06/20 04:02:41;;;;;;;10.35;5.13;;;;;;;22.83;60.29;100859.03;2111811;28;20055;-77
2022/06/20 04:04:07;;;;;;;7.05;3.00;;;;;;;23.01;60.09;100859.28;2112731;28;20129;-76
2022/06/20 04:05:35;;;;;;;6.28;2.53;;;;;;;23.16;59.80;100852.50;2112069;28;20050;-78
2022/06/20 04:07:02;;;;;;;8.23;3.08;;;;;;;23.34;59.79;100853.66;2110581;28;20057;-77
2022/06/20 04:10:57;;;;;;;7.53;2.38;;;;;;;23.52;59.31;100850.31;2103928;28;20044;-77
2022/06/20 04:12:00;;;;;;;6.22;2.33;;;;;;;23.91;59.11;100849.78;2114138;28;20050;-76
2022/06/20 04:13:27;;;;;;;3.70;2.22;;;;;;;24.08;58.63;100852.72;2112238;28;20059;-76
2022/06/20 04:14:58;;;;;;;5.78;2.78;;;;;;;24.22;58.57;100853.06;2112382;28;20040;-76
2022/06/20 04:16:25;;;;;;;4.97;2.65;;;;;;;24.40;58.20;100851.50;2110376;28;20047;-76
2022/06/20 04:19:36;;;;;;;5.18;2.40;;;;;;;24.74;57.68;100857.28;2105663;28;20501;-77
2022/06/20 04:21:10;;;;;;;5.70;2.70;;;;;;;24.95;57.53;100858.22;2102983;28;20048;-76
2022/06/20 04:22:38;;;;;;;5.20;2.60;;;;;;;25.19;57.03;100859.91;2113136;28;20043;-76
2022/06/20 04:24:12;;;;;;;4.95;2.00;;;;;;;25.43;56.74;100855.22;2105898;28;20040;-76
2022/06/20 04:25:40;;;;;;;8.52;2.80;;;;;;;25.63;56.38;100863.38;2097044;28;20358;-76
2022/06/20 04:27:08;;;;;;;10.05;2.28;;;;;;;25.82;55.97;100858.00;2110494;28;20097;-77
2022/06/20 04:28:36;;;;;;;4.45;2.53;;;;;;;26.04;55.27;100852.47;2105854;28;20079;-77
2022/06/20 04:30:03;;;;;;;6.63;1.98;;;;;;;26.27;54.79;100849.56;2103998;28;20633;-77
2022/06/20 04:31:32;;;;;;;6.40;2.13;;;;;;;26.52;54.22;100852.84;2103802;28;20139;-77
2022/06/20 04:32:59;;;;;;;5.63;2.08;;;;;;;26.77;53.36;100859.78;2103946;28;20064;-77
2022/06/20 04:34:27;;;;;;;5.70;1.83;;;;;;;26.96;52.69;100853.41;2095512;28;20040;-78
2022/06/20 04:36:05;;;;;;;7.90;2.60;;;;;;;27.16;52.27;100851.50;2097673;28;20123;-77
2022/06/20 04:37:33;;;;;;;5.43;2.50;;;;;;;27.40;51.64;100852.03;2104788;28;20048;-77
2022/06/20 04:39:01;;;;;;;9.45;2.10;;;;;;;27.57;50.65;100852.06;2102155;28;20048;-78
2022/06/20 04:40:27;;;;;;;4.38;1.90;;;;;;;27.74;49.87;100852.91;2109802;28;20036;-77
2022/06/20 04:41:54;;;;;;;8.88;2.53;;;;;;;27.97;49.44;100848.94;2112161;28;20063;-77
2022/06/20 04:43:21;;;;;;;6.13;2.45;;;;;;;28.24;48.66;100856.53;2112141;28;20067;-77
2022/06/20 04:44:50;;;;;;;5.25;2.45;;;;;;;28.47;47.86;100857.00;2112104;28;20074;-77
2022/06/20 04:46:17;;;;;;;4.10;2.33;;;;;;;28.69;47.30;100856.63;2112462;28;20075;-77
2022/06/20 04:47:43;;;;;;;11.95;2.70;;;;;;;28.78;46.99;100858.84;2112312;28;20147;-77
2022/06/20 04:49:06;;;;;;;5.93;1.98;;;;;;;28.90;46.23;100857.25;2111954;28;20086;-77
2022/06/20 04:50:32;;;;;;;6.28;2.00;;;;;;;29.09;45.60;100855.19;2099323;28;20044;-77
2022/06/20 04:51:56;;;;;;;7.60;2.20;;;;;;;29.36;45.17;100860.84;2110120;28;20415;-77
2022/06/20 04:53:21;;;;;;;6.45;2.38;;;;;;;29.59;45.09;100864.91;2111470;28;20583;-77
2022/06/20 04:54:43;;;;;;;5.88;2.03;;;;;;;29.77;44.32;100860.16;2111649;28;20059;-77
2022/06/20 04:56:08;;;;;;;6.82;1.88;;;;;;;29.96;43.69;100858.91;2111507;28;20082;-77
2022/06/20 04:57:34;;;;;;;8.10;2.28;;;;;;;30.21;43.22;100868.25;2111632;28;20070;-77
2022/06/20 04:59:01;;;;;;;3.47;1.70;;;;;;;30.44;42.37;100859.47;2112040;28;20055;-77
2022/06/20 05:00:29;;;;;;;5.03;1.80;;;;;;;30.65;41.46;100871.72;2112212;28;20816;-77
2022/06/20 05:01:51;;;;;;;4.47;2.00;;;;;;;30.82;41.25;100879.63;2105534;28;20680;-77
2022/06/20 05:03:18;;;;;;;7.00;1.75;;;;;;;31.00;40.81;100873.91;2108610;28;20039;-76
2022/06/20 05:04:45;;;;;;;8.55;1.60;;;;;;;31.13;40.50;100867.56;2111502;28;20036;-77
2022/06/20 05:06:15;;;;;;;6.40;2.22;;;;;;;31.10;39.80;100865.06;2106813;28;20067;-77
2022/06/20 05:07:41;;;;;;;3.90;1.58;;;;;;;31.05;39.29;100869.09;2107822;28;20162;-77
2022/06/20 05:09:12;;;;;;;4.55;1.60;;;;;;;31.00;39.25;100879.38;2103315;28;20043;-77
2022/06/20 05:10:46;;;;;;;3.47;1.55;;;;;;;31.11;38.74;100874.13;2112557;28;20138;-76
2022/06/20 05:12:15;;;;;;;3.45;1.70;;;;;;;31.24;38.05;100872.31;2112853;28;20116;-77
2022/06/20 05:13:45;;;;;;;4.65;2.03;;;;;;;31.25;38.01;100877.63;2112449;28;20039;-76
2022/06/20 05:15:15;;;;;;;5.93;1.73;;;;;;;31.31;38.08;100887.25;2111999;28;20074;-78
2022/06/20 05:16:42;;;;;;;3.92;1.80;;;;;;;31.47;38.03;100887.06;2113542;28;20470;-77
2022/06/20 05:18:12;;;;;;;7.00;1.95;;;;;;;31.67;37.93;100889.31;2111958;28;20070;-77
2022/06/20 05:19:41;;;;;;;7.97;2.00;;;;;;;31.98;37.42;100888.00;2105595;28;20080;-77
2022/06/20 05:21:08;;;;;;;2.33;1.30;;;;;;;32.26;36.50;100892.41;2108634;28;20093;-76
2022/06/20 05:22:37;;;;;;;3.97;1.60;;;;;;;32.52;36.17;100899.56;2108461;28;20410;-77
2022/06/20 05:24:06;;;;;;;7.13;2.13;;;;;;;32.71;35.31;100893.63;2112179;28;20538;-77
2022/06/20 05:25:31;;;;;;;6.18;1.55;;;;;;;32.85;35.20;100893.47;2109838;28;20127;-77
2022/06/20 05:26:54;;;;;;;4.18;1.33;;;;;;;33.02;34.94;100897.66;2104398;28;20080;-77
2022/06/20 05:28:21;;;;;;;3.35;1.33;;;;;;;33.17;34.51;100899.22;2095502;28;20049;-77
2022/06/20 05:29:45;;;;;;;6.32;1.88;;;;;;;33.13;34.35;100901.34;2094604;28;20068;-77
2022/06/20 05:31:08;;;;;;;3.85;1.55;;;;;;;33.24;34.38;100903.28;2100278;28;20453;-77
2022/06/20 05:32:39;;;;;;;3.70;1.67;;;;;;;33.41;33.85;100900.09;2102618;28;20040;-77
2022/06/20 05:34:08;;;;;;;9.68;1.85;;;;;;;33.52;33.59;100902.91;2103700;28;20075;-77
2022/06/20 05:35:36;;;;;;;6.30;2.42;;;;;;;33.44;33.38;100897.13;2103037;28;20823;-77
2022/06/20 05:37:04;;;;;;;4.88;1.50;;;;;;;33.40;33.41;100897.50;2096515;28;20171;-77
2022/06/20 05:38:32;;;;;;;5.45;1.83;;;;;;;33.51;33.57;100901.16;2101447;28;20065;-77
2022/06/20 05:40:02;;;;;;;4.43;1.90;;;;;;;33.66;33.09;100899.09;2102957;28;20612;-77
2022/06/20 05:41:24;;;;;;;4.47;1.67;;;;;;;33.57;33.34;100895.19;2103032;28;20048;-77
2022/06/20 05:42:47;;;;;;;5.10;1.50;;;;;;;33.63;33.21;100896.56;2102224;28;20377;-77
2022/06/20 05:44:12;;;;;;;4.90;1.70;;;;;;;33.77;33.10;100901.00;2102236;28;20679;-77
2022/06/20 05:45:34;;;;;;;2.33;1.35;;;;;;;33.80;33.01;100898.03;2102438;28;20035;-77
2022/06/20 05:47:02;;;;;;;6.13;1.85;;;;;;;33.81;32.86;100911.59;2102222;28;20071;-77
2022/06/20 05:48:31;;;;;;;6.07;1.67;;;;;;;33.83;32.79;100900.50;2104810;28;20039;-78
2022/06/20 05:49:58;;;;;;;3.10;1.48;;;;;;;33.85;32.79;100910.38;2094560;28;20060;-77
2022/06/20 05:51:23;;;;;;;5.93;1.90;;;;;;;33.86;32.99;100914.84;2100936;28;20499;-77
2022/06/20 05:52:45;;;;;;;4.93;1.90;;;;;;;33.93;32.70;100913.38;2094423;28;20064;-77
2022/06/20 05:54:15;;;;;;;3.33;1.40;;;;;;;33.94;32.67;100906.00;2101800;28;20044;-78
2022/06/20 05:55:43;;;;;;;3.35;1.27;;;;;;;34.08;32.47;100907.63;2103257;28;20693;-77
2022/06/20 05:57:12;;;;;;;4.30;1.58;;;;;;;34.23;32.44;100910.06;2104818;28;20093;-77
2022/06/20 05:58:37;;;;;;;3.00;1.70;;;;;;;34.38;32.40;100902.47;2104442;28;20036;-77
2022/06/20 06:00:02;;;;;;;3.28;1.40;;;;;;;34.56;32.55;100906.44;2102548;28;20846;-78
2022/06/20 06:01:41;;;;;;;3.55;1.50;;;;;;;34.66;32.65;100909.25;2103832;28;20063;-78
2022/06/20 06:03:09;;;;;;;5.70;1.60;;;;;;;34.66;32.46;100917.50;2103178;28;20605;-78
2022/06/20 06:04:38;;;;;;;6.13;1.85;;;;;;;34.57;32.44;100913.66;2102753;28;20055;-78
2022/06/20 06:06:07;;;;;;;6.68;1.45;;;;;;;34.60;32.73;100918.88;2096415;28;20085;-77
2022/06/20 06:07:34;;;;;;;3.90;1.60;;;;;;;34.71;32.69;100912.56;2092784;28;20044;-77
2022/06/20 06:09:02;;;;;;;6.95;1.83;;;;;;;34.77;32.36;100917.53;2092607;28;20057;-77
2022/06/20 06:10:32;;;;;;;4.68;1.58;;;;;;;34.84;32.28;100912.41;2100212;28;21571;-77
2022/06/20 06:12:00;;;;;;;3.67;1.52;;;;;;;34.98;31.81;100906.63;2096599;28;20101;-77
2022/06/20 06:13:30;;;;;;;3.45;1.23;;;;;;;35.06;31.90;100906.84;2097847;28;20091;-78
2022/06/20 06:14:56;;;;;;;2.25;1.30;;;;;;;35.15;31.77;100908.81;2111611;28;20055;-78
2022/06/20 06:18:09;;;;;;;3.42;1.52;;;;;;;35.25;31.54;100907.03;2104806;28;20063;-78
2022/06/20 06:19:38;;;;;;;3.50;1.30;;;;;;;35.11;31.53;100901.84;2103223;28;20048;-77
2022/06/20 06:21:01;;;;;;;5.57;1.40;;;;;;;34.97;31.63;100913.13;2094575;28;20056;-78
2022/06/20 06:22:25;;;;;;;7.43;1.60;;;;;;;34.98;31.76;100918.50;2102411;28;20089;-77
2022/06/20 06:23:48;;;;;;;3.60;1.30;;;;;;;34.99;31.93;100913.84;2111140;28;20083;-77
2022/06/20 06:25:19;;;;;;;3.85;1.48;;;;;;;34.98;31.77;100913.00;2104181;28;20099;-77
2022/06/20 06:26:45;;;;;;;3.58;1.20;;;;;;;34.95;31.73;100916.00;2103598;28;20046;-77
2022/06/20 06:28:16;;;;;;;7.70;1.67;;;;;;;34.96;31.64;100912.25;2094214;28;20151;-78
2022/06/20 06:29:43;;;;;;;2.50;1.35;;;;;;;34.98;31.57;100918.50;2104546;28;20629;-78
2022/06/20 06:31:11;;;;;;;3.45;1.30;;;;;;;34.98;31.44;100913.00;2097347;28;20048;-78
2022/06/20 06:32:40;;;;;;;5.68;1.42;;;;;;;34.90;31.45;100917.38;2102461;28;20539;-78
2022/06/20 06:34:12;;;;;;;3.85;1.25;;;;;;;34.86;31.78;100924.09;2094300;28;20052;-79
2022/06/20 06:35:37;;;;;;;4.03;1.65;;;;;;;34.89;31.93;100923.88;2100534;28;20055;-78
2022/06/20 06:37:04;;;;;;;5.35;1.75;;;;;;;34.87;32.14;100926.72;2094190;28;20076;-79
2022/06/20 06:38:32;;;;;;;3.17;1.33;;;;;;;34.76;32.12;100913.91;2100439;28;20048;-78
2022/06/20 06:40:02;;;;;;;4.88;1.40;;;;;;;34.64;32.39;100927.75;2104208;28;20058;-78
2022/06/20 06:41:30;;;;;;;4.95;1.70;;;;;;;34.65;32.50;100927.63;2101520;28;20078;-77
2022/06/20 06:42:57;;;;;;;3.92;1.33;;;;;;;34.64;32.56;100920.38;2098236;28;20040;-77
2022/06/20 06:44:32;;;;;;;3.88;1.27;;;;;;;34.72;32.61;100923.38;2097014;28;20055;-78
2022/06/20 06:45:57;;;;;;;3.60;1.73;;;;;;;34.91;32.54;100932.84;2099813;28;20056;-78
2022/06/20 06:47:26;;;;;;;6.53;1.60;;;;;;;35.02;32.14;100930.94;2102397;28;20465;-78
2022/06/20 06:48:55;;;;;;;6.15;1.65;;;;;;;34.96;32.07;100919.59;2089827;28;20049;-77
2022/06/20 06:50:25;;;;;;;4.68;1.65;;;;;;;34.58;32.35;100923.66;2092921;28;20049;-79